Gem No.2 — 3FQW3 — position and weather

sailwx.info

Track history (hours):
 
Tides and Currents Weather Stations Pressure Air Temp Water Temp Dewpoint Dewpoint Depression Visibility Wind Speed Wind Dir Waves Ship Positions

Gem No.2

Last reported at 2018-Apr-03 03:00 UTC. Time now 2018-Apr-20 01:23 UTC.
Position N 32°23' W 117°33'.
Warning: this ship's position is 16 days out of date.

Length 330 m; draft 10.8 m.

Type: Tanker. MMSI: 354264000.

Date/timePositionNaut miles runAvg speedWind from/ knotsBaromVisibWave heightAir tempDewpointWater temp
2018-Apr-03 03:00N 32°23' W 117°33'510.8
2018-Apr-03 02:30N 32°28' W 117°34'510.8
2018-Apr-03 02:00N 32°34' W 117°36'510.5
2018-Apr-03 01:30N 32°38' W 117°38'510.4
2018-Apr-03 01:00N 32°43' W 117°41'5 9.2
2018-Apr-03 00:30N 32°47' W 117°44'2 3.2
2018-Apr-03 00:00N 32°48' W 117°45'3 5.3
2018-Apr-02 23:30N 32°51' W 117°46'510.3
2018-Apr-02 23:00N 32°55' W 117°50'510.4
2018-Apr-02 22:30N 32°59' W 117°53'510.4
2018-Apr-02 22:00N 33°04' W 117°56'510.4
2018-Apr-02 21:30N 33°08' W 117°59'510.4
2018-Apr-02 21:00N 33°13' W 118°02'510.5
2018-Apr-02 20:30N 33°17' W 118°06'1710.1
2018-Apr-02 18:47N 33°34' W 118°13'3 9.8
2018-Apr-02 18:30N 33°36' W 118°13'510.0
2018-Apr-02 18:00N 33°41' W 118°12'3 5.9
2018-Apr-02 17:31N 33°44' W 118°11'0 0.1
2018-Apr-02 16:59N 33°44' W 118°11'0 0.1
2018-Apr-02 16:29N 33°44' W 118°11'0 0.1
2018-Apr-02 15:59N 33°44' W 118°11'0 0.1
2018-Apr-02 15:29N 33°44' W 118°10'0 0.1
2018-Apr-02 14:59N 33°44' W 118°10'0 0.0
2018-Apr-02 14:29N 33°44' W 118°10'0 0.0
2018-Apr-02 13:59N 33°44' W 118°10'0 0.0
2018-Apr-02 13:23N 33°44' W 118°10'0 0.1
2018-Apr-02 12:56N 33°44' W 118°10'0 0.1
2018-Apr-02 12:29N 33°44' W 118°11'0 0.2
2018-Apr-02 11:44N 33°44' W 118°11'0 0.1
2018-Apr-02 11:29N 33°44' W 118°11'0 0.1
2018-Apr-02 10:59N 33°44' W 118°11'0 0.1
2018-Apr-02 10:29N 33°44' W 118°11'0 0.1
2018-Apr-02 10:00N 33°44' W 118°11'2 3.3
2018-Apr-02 09:30N 33°44' W 118°13'1 2.3
2018-Apr-02 09:00N 33°45' W 118°13'0 0.0
2018-Apr-02 08:30N 33°45' W 118°13'0 0.0
2018-Apr-02 04:18N 33°45' W 118°13'0 0.0
2018-Apr-02 04:00N 33°45' W 118°13'0 0.0
2018-Apr-02 02:18N 33°45' W 118°13'0 0.0
2018-Apr-02 02:00N 33°45' W 118°13'0 0.0
2018-Apr-02 01:30N 33°45' W 118°13'0 0.0
2018-Apr-02 01:00N 33°45' W 118°13'0 0.0
2018-Apr-02 00:30N 33°45' W 118°13'0 0.0
2018-Apr-01 23:48N 33°45' W 118°13'0 0.0
2018-Apr-01 23:27N 33°45' W 118°13'0 0.0
2018-Apr-01 23:00N 33°45' W 118°13'0 0.0
2018-Apr-01 22:30N 33°45' W 118°13'0 0.0
2018-Apr-01 22:00N 33°45' W 118°13'0 0.0
2018-Apr-01 21:24N 33°45' W 118°13'0 0.0
2018-Apr-01 21:00N 33°45' W 118°13'0 0.0
2018-Apr-01 20:30N 33°45' W 118°13'0 0.0
2018-Apr-01 19:48N 33°45' W 118°13'0 0.0
2018-Apr-01 19:30N 33°45' W 118°13'0 0.0
2018-Apr-01 19:00N 33°45' W 118°13'0 0.0
2018-Apr-01 18:24N 33°45' W 118°13'0 0.0
2018-Apr-01 18:00N 33°45' W 118°13'0 0.0
2018-Apr-01 17:30N 33°45' W 118°13'0 0.0
2018-Apr-01 17:00N 33°45' W 118°13'0 0.0
2018-Apr-01 16:30N 33°45' W 118°13'0 0.0
2018-Apr-01 16:00N 33°45' W 118°13'0 0.0
2018-Apr-01 15:30N 33°45' W 118°13'0 0.0
2018-Apr-01 15:00N 33°45' W 118°13'0 0.0
2018-Apr-01 14:30N 33°45' W 118°13'0 0.0
2018-Apr-01 03:07N 33°45' W 118°13'0 0.1
2018-Apr-01 03:00N 33°45' W 118°13'1 1.2
2018-Apr-01 02:31N 33°45' W 118°13'2 4.7
2018-Apr-01 02:01N 33°44' W 118°11'1 1.3
2018-Apr-01 01:28N 33°44' W 118°10'0 0.0
2018-Apr-01 00:58N 33°44' W 118°10'0 0.0
2018-Apr-01 00:28N 33°44' W 118°10'0 0.0
2018-Mar-31 23:58N 33°44' W 118°10'0 0.0
2018-Mar-31 23:28N 33°44' W 118°10'0 0.0
2018-Mar-31 22:58N 33°44' W 118°10'0 0.0
2018-Mar-31 22:28N 33°44' W 118°10'0 0.0
2018-Mar-31 21:58N 33°44' W 118°10'0 0.0
2018-Mar-31 21:28N 33°44' W 118°10'0 0.0
2018-Mar-31 20:58N 33°44' W 118°10'0 0.0
2018-Mar-31 20:28N 33°44' W 118°10'0 0.1
2018-Mar-31 19:58N 33°44' W 118°10'0 0.2
2018-Mar-31 19:28N 33°44' W 118°10'0 0.3
2018-Mar-31 18:55N 33°44' W 118°10'0 0.3
2018-Mar-31 18:30N 33°44' W 118°10'0 0.1
2018-Mar-31 17:49N 33°44' W 118°10'0 0.2
2018-Mar-31 17:28N 33°44' W 118°10'0 0.0
2018-Mar-31 16:58N 33°44' W 118°10'0 0.0
2018-Mar-31 16:28N 33°44' W 118°10'0 0.0
2018-Mar-31 15:58N 33°44' W 118°10'0 0.1
2018-Mar-31 15:28N 33°44' W 118°10'0 0.2
2018-Mar-31 14:58N 33°44' W 118°10'0 0.1
2018-Mar-31 14:28N 33°44' W 118°10'0 0.1
2018-Mar-31 13:58N 33°44' W 118°10'0 0.0
2018-Mar-31 13:25N 33°44' W 118°10'0 0.0
2018-Mar-31 12:58N 33°44' W 118°10'0 0.0
2018-Mar-31 12:25N 33°44' W 118°10'0 0.0
2018-Mar-31 11:58N 33°44' W 118°10'0 0.0
2018-Mar-31 11:28N 33°44' W 118°10'0 0.0
2018-Mar-31 10:58N 33°44' W 118°10'0 0.0
2018-Mar-31 10:28N 33°44' W 118°10'0 0.0
2018-Mar-31 09:58N 33°44' W 118°10'0 0.0
2018-Mar-31 09:28N 33°44' W 118°10'0 0.0
2018-Mar-31 08:58N 33°44' W 118°10'0 0.0
2018-Mar-31 08:28N 33°44' W 118°10'0 0.0
2018-Mar-31 08:01N 33°44' W 118°10'0 0.0
2018-Mar-31 07:28N 33°44' W 118°10'0 0.0
2018-Mar-31 06:58N 33°44' W 118°10'0 0.0
2018-Mar-31 06:25N 33°44' W 118°10'0 0.0
2018-Mar-31 06:01N 33°44' W 118°10'0 0.0
2018-Mar-31 05:31N 33°44' W 118°10'0 0.1
2018-Mar-31 04:58N 33°44' W 118°10'0 0.0
2018-Mar-31 04:28N 33°44' W 118°10'0 0.0
2018-Mar-31 03:58N 33°44' W 118°10'0 0.0
2018-Mar-31 03:28N 33°44' W 118°10'0 0.0
2018-Mar-31 03:00N 33°44' W 118°10'0 0.0
2018-Mar-31 02:28N 33°44' W 118°10'0 0.1
2018-Mar-31 02:00N 33°44' W 118°10'0 0.0
2018-Mar-31 01:28N 33°44' W 118°10'0 0.1
2018-Mar-31 00:55N 33°44' W 118°10'0 0.0
2018-Mar-31 00:28N 33°44' W 118°10'0 0.0
2018-Mar-30 23:58N 33°44' W 118°10'0 0.0
2018-Mar-30 23:28N 33°44' W 118°10'0 0.0
2018-Mar-30 22:58N 33°44' W 118°10'0 0.0
2018-Mar-30 22:28N 33°44' W 118°10'0 0.0
2018-Mar-30 21:58N 33°44' W 118°10'0 0.0
2018-Mar-30 21:31N 33°44' W 118°10'0 0.0
2018-Mar-30 20:58N 33°44' W 118°10'0 0.0
2018-Mar-30 20:31N 33°44' W 118°10'0 0.0
2018-Mar-30 19:58N 33°44' W 118°10'0 0.1
2018-Mar-30 19:28N 33°44' W 118°10'0 0.2
2018-Mar-30 18:58N 33°44' W 118°10'0 0.3
2018-Mar-30 18:31N 33°44' W 118°10'0 0.3
2018-Mar-30 18:01N 33°44' W 118°10'0 0.1
2018-Mar-30 17:31N 33°44' W 118°10'0 0.0
2018-Mar-30 16:55N 33°44' W 118°10'0 0.1
2018-Mar-30 16:30N 33°44' W 118°10'0 0.1
2018-Mar-30 15:57N 33°44' W 118°10'0 0.1
2018-Mar-30 15:30N 33°44' W 118°10'0 0.1
2018-Mar-30 14:58N 33°44' W 118°10'0 0.1
2018-Mar-30 14:28N 33°44' W 118°10'0 0.1
2018-Mar-30 14:01N 33°44' W 118°10'0 0.1
2018-Mar-30 13:31N 33°44' W 118°10'0 0.1
2018-Mar-30 13:01N 33°44' W 118°10'0 0.0
2018-Mar-30 12:31N 33°44' W 118°10'0 0.1
2018-Mar-30 11:57N 33°44' W 118°10'0 0.0
2018-Mar-30 11:28N 33°44' W 118°10'0 0.0
2018-Mar-30 11:01N 33°44' W 118°10'0 0.1
2018-Mar-30 10:30N 33°44' W 118°10'0 0.0
2018-Mar-30 10:00N 33°44' W 118°10'0 0.0
2018-Mar-30 09:30N 33°44' W 118°10'0 0.0
2018-Mar-30 09:01N 33°44' W 118°10'0 0.0
2018-Mar-30 08:30N 33°44' W 118°10'0 0.1
2018-Mar-30 08:00N 33°44' W 118°10'0 0.2
2018-Mar-30 07:30N 33°44' W 118°10'0 0.1
2018-Mar-30 07:00N 33°44' W 118°10'0 0.0
2018-Mar-30 06:30N 33°44' W 118°10'0 0.0
2018-Mar-30 06:00N 33°44' W 118°10'0 0.1
2018-Mar-30 05:30N 33°44' W 118°10'0 0.1
2018-Mar-30 05:00N 33°44' W 118°10'0 0.2
2018-Mar-30 04:31N 33°44' W 118°10'0 0.1
2018-Mar-30 04:00N 33°44' W 118°10'0 0.0
2018-Mar-30 03:30N 33°44' W 118°10'0 0.0
2018-Mar-30 03:00N 33°44' W 118°10'0 0.0
2018-Mar-30 02:30N 33°44' W 118°10'0 0.0
2018-Mar-30 02:01N 33°44' W 118°10'0 0.0
2018-Mar-30 01:31N 33°44' W 118°10'0 0.0
2018-Mar-30 00:57N 33°44' W 118°10'0 0.0
2018-Mar-30 00:30N 33°44' W 118°10'0 0.0
2018-Mar-30 00:01N 33°44' W 118°10'0 0.0
2018-Mar-29 23:30N 33°44' W 118°10'0 0.0
2018-Mar-29 23:00N 33°44' W 118°10'0 0.0
2018-Mar-29 22:30N 33°44' W 118°10'0 0.0
2018-Mar-29 22:00N 33°44' W 118°10'0 0.0
2018-Mar-29 21:30N 33°44' W 118°10'0 0.0
2018-Mar-29 21:00N 33°44' W 118°10'0 0.1
2018-Mar-29 20:30N 33°44' W 118°10'0 0.3
2018-Mar-29 20:01N 33°44' W 118°10'0 0.2
2018-Mar-29 19:30N 33°44' W 118°10'0 0.2
2018-Mar-29 19:00N 33°44' W 118°10'0 0.0
2018-Mar-29 18:30N 33°44' W 118°10'0 0.0
2018-Mar-29 18:00N 33°44' W 118°10'0 0.1
2018-Mar-29 17:30N 33°44' W 118°10'0 0.1
2018-Mar-29 17:01N 33°44' W 118°10'0 0.1
2018-Mar-29 16:24N 33°44' W 118°10'0 0.2
2018-Mar-29 16:00N 33°44' W 118°10'0 0.1
2018-Mar-29 15:30N 33°44' W 118°10'0 0.0
2018-Mar-29 15:00N 33°44' W 118°10'0 0.0
2018-Mar-29 14:30N 33°44' W 118°10'0 0.0
2018-Mar-29 14:00N 33°44' W 118°10'0 0.1
2018-Mar-29 13:30N 33°44' W 118°10'0 0.1
2018-Mar-29 13:00N 33°44' W 118°10'0 0.1
2018-Mar-29 12:30N 33°44' W 118°10'0 0.0
2018-Mar-29 12:00N 33°44' W 118°10'0 0.0
2018-Mar-29 11:30N 33°44' W 118°10'0 0.0
2018-Mar-29 11:00N 33°44' W 118°10'0 0.0
2018-Mar-29 10:30N 33°44' W 118°10'0 0.0
2018-Mar-29 09:54N 33°44' W 118°10'0 0.1
2018-Mar-29 09:30N 33°44' W 118°10'0 0.1
2018-Mar-29 09:00N 33°44' W 118°10'0 0.0
2018-Mar-29 08:27N 33°44' W 118°10'0 0.0
2018-Mar-29 08:00N 33°44' W 118°10'0 0.1
2018-Mar-29 07:30N 33°44' W 118°10'0 0.0
2018-Mar-29 07:00N 33°44' W 118°10'0 0.0
2018-Mar-29 06:30N 33°44' W 118°10'0 0.0
2018-Mar-29 06:00N 33°44' W 118°10'0 0.0
2018-Mar-29 05:30N 33°44' W 118°10'0 0.0
2018-Mar-29 05:00N 33°44' W 118°10'0 0.0
2018-Mar-29 04:30N 33°44' W 118°10'0 0.0
2018-Mar-29 04:00N 33°44' W 118°10'0 0.0
2018-Mar-29 03:30N 33°44' W 118°10'0 0.0
2018-Mar-29 03:00N 33°44' W 118°10'0 0.0
2018-Mar-29 02:30N 33°44' W 118°10'0 0.0
2018-Mar-29 02:00N 33°44' W 118°10'0 0.0
2018-Mar-29 01:30N 33°44' W 118°10'0 0.0
2018-Mar-29 01:00N 33°44' W 118°10'0 0.1
2018-Mar-29 00:30N 33°44' W 118°10'0 0.0
2018-Mar-29 00:00N 33°44' W 118°10'0 0.0
2018-Mar-28 23:30N 33°44' W 118°10'0 0.0
2018-Mar-28 23:00N 33°44' W 118°10'0 0.1
2018-Mar-28 22:30N 33°44' W 118°10'0 0.1
2018-Mar-28 22:00N 33°44' W 118°10'0 0.0
2018-Mar-28 21:30N 33°44' W 118°10'0 0.0
2018-Mar-28 21:00N 33°44' W 118°10'0 0.0
2018-Mar-28 20:30N 33°44' W 118°10'0 0.3
2018-Mar-28 20:00N 33°44' W 118°10'0 0.2
2018-Mar-28 19:30N 33°44' W 118°10'0 0.1
2018-Mar-28 19:00N 33°44' W 118°10'0 0.9
2018-Mar-28 18:30N 33°44' W 118°11'2 4.9
2018-Mar-28 18:00N 33°45' W 118°13'0 0.9
2018-Mar-28 17:30N 33°45' W 118°13'0 0.0
2018-Mar-28 16:53N 33°45' W 118°13'0 0.0
2018-Mar-28 16:29N 33°45' W 118°13'0 0.0
2018-Mar-28 15:59N 33°45' W 118°13'0 0.0
2018-Mar-28 15:29N 33°45' W 118°13'0 0.0
2018-Mar-28 14:59N 33°45' W 118°13'0 0.0
2018-Mar-28 14:29N 33°45' W 118°13'0 0.0
2018-Mar-28 13:59N 33°45' W 118°13'0 0.0
2018-Mar-28 02:14N 33°45' W 118°13'0 0.0
2018-Mar-28 01:53N 33°45' W 118°13'0 0.0
2018-Mar-28 01:23N 33°45' W 118°13'0 0.0
2018-Mar-28 00:53N 33°45' W 118°13'0 0.0
2018-Mar-28 00:26N 33°45' W 118°13'0 0.0
2018-Mar-27 23:56N 33°45' W 118°13'0 0.0
2018-Mar-27 23:29N 33°45' W 118°13'0 0.0
2018-Mar-27 22:59N 33°45' W 118°13'0 0.0
2018-Mar-27 22:29N 33°45' W 118°13'0 0.0
2018-Mar-27 21:59N 33°45' W 118°13'0 0.0
2018-Mar-27 21:29N 33°45' W 118°13'0 0.0
2018-Mar-27 20:59N 33°45' W 118°13'0 0.0
2018-Mar-27 20:29N 33°45' W 118°13'0 0.0
2018-Mar-27 19:59N 33°45' W 118°13'0 0.0
2018-Mar-27 19:29N 33°45' W 118°13'0 0.0
2018-Mar-27 18:59N 33°45' W 118°13'0 0.0
2018-Mar-27 18:29N 33°45' W 118°13'0 0.0
2018-Mar-27 17:59N 33°45' W 118°13'0 0.0
2018-Mar-27 17:29N 33°45' W 118°13'0 0.0
2018-Mar-27 16:59N 33°45' W 118°13'0 0.0
2018-Mar-27 16:29N 33°45' W 118°13'0 0.0
2018-Mar-27 15:59N 33°45' W 118°13'0 0.0
2018-Mar-27 15:26N 33°45' W 118°13'0 0.0
2018-Mar-27 14:56N 33°45' W 118°13'0 0.0
2018-Mar-27 14:11N 33°45' W 118°13'0 0.0
2018-Mar-27 14:00N 33°45' W 118°13'0 0.1
2018-Mar-27 13:30N 33°45' W 118°13'1 2.1
2018-Mar-27 13:00N 33°44' W 118°13'3 5.1
2018-Mar-27 12:30N 33°42' W 118°11'3 5.1
2018-Mar-27 12:00N 33°40' W 118°09'2 2.4
2018-Mar-27 11:10N 33°41' W 118°06'0 0.1
2018-Mar-27 10:40N 33°41' W 118°06'0 0.0
2018-Mar-27 10:28N 33°41' W 118°06'0 0.1
2018-Mar-27 09:21N 33°41' W 118°06'0 0.0
2018-Mar-27 04:54N 33°41' W 118°06'0 0.0
2018-Mar-27 04:03N 33°41' W 118°06'0 0.2
2018-Mar-27 03:57N 33°41' W 118°06'0 0.0
2018-Mar-27 03:28N 33°41' W 118°06'0 0.0
2018-Mar-27 02:57N 33°41' W 118°06'0 0.0
2018-Mar-27 02:28N 33°41' W 118°06'0 0.0
2018-Mar-27 02:00N 33°41' W 118°06'0 0.0
2018-Mar-27 01:30N 33°41' W 118°06'0 0.1
2018-Mar-27 01:00N 33°41' W 118°06'0 0.0
2018-Mar-27 00:30N 33°41' W 118°06'0 0.0
2018-Mar-26 23:57N 33°41' W 118°06'0 0.0
2018-Mar-26 23:30N 33°41' W 118°06'0 0.0
2018-Mar-26 23:00N 33°41' W 118°06'0 0.0
2018-Mar-26 22:27N 33°41' W 118°06'0 0.0
2018-Mar-26 22:00N 33°41' W 118°06'0 0.0
2018-Mar-26 21:24N 33°41' W 118°06'0 0.0
2018-Mar-26 21:00N 33°41' W 118°06'0 0.0
2018-Mar-26 20:27N 33°41' W 118°06'0 0.0
2018-Mar-26 19:57N 33°41' W 118°06'0 0.0
2018-Mar-26 19:30N 33°41' W 118°06'0 0.0
2018-Mar-26 19:00N 33°41' W 118°06'0 0.0
2018-Mar-26 18:30N 33°41' W 118°06'0 0.0
2018-Mar-26 17:57N 33°41' W 118°06'0 0.0
2018-Mar-26 17:30N 33°41' W 118°06'0 0.0
2018-Mar-26 17:00N 33°41' W 118°06'0 0.0
2018-Mar-26 16:30N 33°41' W 118°06'0 0.0
2018-Mar-26 16:00N 33°41' W 118°06'0 0.0
2018-Mar-26 15:30N 33°41' W 118°06'0 0.0
2018-Mar-26 15:00N 33°41' W 118°06'0 0.1
2018-Mar-26 14:30N 33°41' W 118°06'0 0.0
2018-Mar-26 14:00N 33°41' W 118°06'0 0.0
2018-Mar-26 09:45N 33°41' W 118°06'0 0.0
2018-Mar-26 02:15N 33°41' W 118°06'0 0.0
2018-Mar-26 02:00N 33°41' W 118°06'0 0.0
2018-Mar-26 01:30N 33°41' W 118°06'0 0.0
2018-Mar-26 01:00N 33°41' W 118°06'0 0.0
2018-Mar-26 00:30N 33°41' W 118°06'0 0.0
2018-Mar-26 00:00N 33°41' W 118°06'0 0.0
2018-Mar-25 23:30N 33°41' W 118°06'0 0.0
2018-Mar-25 23:00N 33°41' W 118°06'0 0.0
2018-Mar-25 22:27N 33°41' W 118°06'0 0.0
2018-Mar-25 22:00N 33°41' W 118°06'0 0.0
2018-Mar-25 21:27N 33°41' W 118°06'0 0.0
2018-Mar-25 21:00N 33°41' W 118°06'0 0.0
2018-Mar-25 20:30N 33°41' W 118°06'0 0.0
2018-Mar-25 20:00N 33°41' W 118°06'0 0.0
2018-Mar-25 19:30N 33°41' W 118°06'0 0.0
2018-Mar-25 18:57N 33°41' W 118°06'0 0.0
2018-Mar-25 18:30N 33°41' W 118°06'0 0.1
2018-Mar-25 18:00N 33°41' W 118°06'0 0.0
2018-Mar-25 17:30N 33°41' W 118°06'0 0.0
2018-Mar-25 17:00N 33°41' W 118°06'0 0.0
2018-Mar-25 16:30N 33°41' W 118°06'0 0.0
2018-Mar-25 16:00N 33°41' W 118°06'0 0.0
2018-Mar-25 15:30N 33°41' W 118°06'0 0.0
2018-Mar-25 15:00N 33°41' W 118°06'0 0.0
2018-Mar-25 14:27N 33°41' W 118°06'0 0.0
2018-Mar-25 14:00N 33°41' W 118°06'0 0.0
2018-Mar-25 11:39N 33°41' W 118°06'0 0.0
2018-Mar-25 02:15N 33°41' W 118°06'0 0.0
2018-Mar-25 02:00N 33°41' W 118°06'0 0.0
2018-Mar-25 01:30N 33°41' W 118°06'0 0.0
2018-Mar-25 01:00N 33°41' W 118°06'0 0.4
2018-Mar-25 00:30N 33°41' W 118°07'0 0.4
2018-Mar-25 00:00N 33°41' W 118°07'2 3.6
2018-Mar-24 23:30N 33°39' W 118°08'3 6.9
2018-Mar-24 23:01N 33°36' W 118°10'4 8.5
2018-Mar-24 22:30N 33°32' W 118°08'5 9.0
2018-Mar-24 22:00N 33°28' W 118°06'15 9.8
2018-Mar-24 20:28N 33°13' W 118°03'511.3
2018-Mar-24 19:59N 33°07' W 118°02'510.9
2018-Mar-24 19:30N 33°02' W 118°02'510.8
2018-Mar-24 19:00N 32°57' W 118°02'510.9
2018-Mar-24 18:30N 32°51' W 118°02'610.8
2018-Mar-24 17:56N 32°45' W 118°02'41 8.7
2018-Mar-24 13:11N 32°12' W 118°32'40 9.2
2018-Mar-24 08:53N 31°34' W 118°22'3 9.2
2018-Mar-24 08:30N 31°30' W 118°21'5 9.3
2018-Mar-24 07:58N 31°26' W 118°19'4 9.5
2018-Mar-24 07:31N 31°21' W 118°18'2 4.0
2018-Mar-24 07:01N 31°19' W 118°18'2 3.3
2018-Mar-24 06:28N 31°21' W 118°19'2 3.3
2018-Mar-24 05:48N 31°23' W 118°20'2 3.6
2018-Mar-24 05:23N 31°24' W 118°21'2 3.5
2018-Mar-24 04:45N 31°27' W 118°21'1 2.1
2018-Mar-24 04:30N 31°27' W 118°21'1 1.5
2018-Mar-24 04:00N 31°28' W 118°21'1 1.3
2018-Mar-24 03:16N 31°29' W 118°20'  
Track history (hours):
 
Tides and Currents Weather Stations Pressure Air Temp Water Temp Dewpoint Dewpoint Depression Visibility Wind Speed Wind Dir Waves Ship Positions

Gem No.2

Last reported at 2018-Apr-03 03:00 UTC. Time now 2018-Apr-20 01:23 UTC.
Position N 32°23' W 117°33'.
Warning: this ship's position is 16 days out of date.

Length 330 m; draft 10.8 m.

Type: Tanker. MMSI: 354264000.

Date/timePositionNaut miles runAvg speedWind from/ knotsBaromVisibWave heightAir tempDewpointWater temp
2018-Apr-03 03:00N 32°23' W 117°33'510.8
2018-Apr-03 02:30N 32°28' W 117°34'510.8
2018-Apr-03 02:00N 32°34' W 117°36'510.5
2018-Apr-03 01:30N 32°38' W 117°38'510.4
2018-Apr-03 01:00N 32°43' W 117°41'5 9.2
2018-Apr-03 00:30N 32°47' W 117°44'2 3.2
2018-Apr-03 00:00N 32°48' W 117°45'3 5.3
2018-Apr-02 23:30N 32°51' W 117°46'510.3
2018-Apr-02 23:00N 32°55' W 117°50'510.4
2018-Apr-02 22:30N 32°59' W 117°53'510.4
2018-Apr-02 22:00N 33°04' W 117°56'510.4
2018-Apr-02 21:30N 33°08' W 117°59'510.4
2018-Apr-02 21:00N 33°13' W 118°02'510.5
2018-Apr-02 20:30N 33°17' W 118°06'1710.1
2018-Apr-02 18:47N 33°34' W 118°13'3 9.8
2018-Apr-02 18:30N 33°36' W 118°13'510.0
2018-Apr-02 18:00N 33°41' W 118°12'3 5.9
2018-Apr-02 17:31N 33°44' W 118°11'0 0.1
2018-Apr-02 16:59N 33°44' W 118°11'0 0.1
2018-Apr-02 16:29N 33°44' W 118°11'0 0.1
2018-Apr-02 15:59N 33°44' W 118°11'0 0.1
2018-Apr-02 15:29N 33°44' W 118°10'0 0.1
2018-Apr-02 14:59N 33°44' W 118°10'0 0.0
2018-Apr-02 14:29N 33°44' W 118°10'0 0.0
2018-Apr-02 13:59N 33°44' W 118°10'0 0.0
2018-Apr-02 13:23N 33°44' W 118°10'0 0.1
2018-Apr-02 12:56N 33°44' W 118°10'0 0.1
2018-Apr-02 12:29N 33°44' W 118°11'0 0.2
2018-Apr-02 11:44N 33°44' W 118°11'0 0.1
2018-Apr-02 11:29N 33°44' W 118°11'0 0.1
2018-Apr-02 10:59N 33°44' W 118°11'0 0.1
2018-Apr-02 10:29N 33°44' W 118°11'0 0.1
2018-Apr-02 10:00N 33°44' W 118°11'2 3.3
2018-Apr-02 09:30N 33°44' W 118°13'1 2.3
2018-Apr-02 09:00N 33°45' W 118°13'0 0.0
2018-Apr-02 08:30N 33°45' W 118°13'0 0.0
2018-Apr-02 04:18N 33°45' W 118°13'0 0.0
2018-Apr-02 04:00N 33°45' W 118°13'0 0.0
2018-Apr-02 02:18N 33°45' W 118°13'0 0.0
2018-Apr-02 02:00N 33°45' W 118°13'0 0.0
2018-Apr-02 01:30N 33°45' W 118°13'0 0.0
2018-Apr-02 01:00N 33°45' W 118°13'0 0.0
2018-Apr-02 00:30N 33°45' W 118°13'0 0.0
2018-Apr-01 23:48N 33°45' W 118°13'0 0.0
2018-Apr-01 23:27N 33°45' W 118°13'0 0.0
2018-Apr-01 23:00N 33°45' W 118°13'0 0.0
2018-Apr-01 22:30N 33°45' W 118°13'0 0.0
2018-Apr-01 22:00N 33°45' W 118°13'0 0.0
2018-Apr-01 21:24N 33°45' W 118°13'0 0.0
2018-Apr-01 21:00N 33°45' W 118°13'0 0.0
2018-Apr-01 20:30N 33°45' W 118°13'0 0.0
2018-Apr-01 19:48N 33°45' W 118°13'0 0.0
2018-Apr-01 19:30N 33°45' W 118°13'0 0.0
2018-Apr-01 19:00N 33°45' W 118°13'0 0.0
2018-Apr-01 18:24N 33°45' W 118°13'0 0.0
2018-Apr-01 18:00N 33°45' W 118°13'0 0.0
2018-Apr-01 17:30N 33°45' W 118°13'0 0.0
2018-Apr-01 17:00N 33°45' W 118°13'0 0.0
2018-Apr-01 16:30N 33°45' W 118°13'0 0.0
2018-Apr-01 16:00N 33°45' W 118°13'0 0.0
2018-Apr-01 15:30N 33°45' W 118°13'0 0.0
2018-Apr-01 15:00N 33°45' W 118°13'0 0.0
2018-Apr-01 14:30N 33°45' W 118°13'0 0.0
2018-Apr-01 03:07N 33°45' W 118°13'0 0.1
2018-Apr-01 03:00N 33°45' W 118°13'1 1.2
2018-Apr-01 02:31N 33°45' W 118°13'2 4.7
2018-Apr-01 02:01N 33°44' W 118°11'1 1.3
2018-Apr-01 01:28N 33°44' W 118°10'0 0.0
2018-Apr-01 00:58N 33°44' W 118°10'0 0.0
2018-Apr-01 00:28N 33°44' W 118°10'0 0.0
2018-Mar-31 23:58N 33°44' W 118°10'0 0.0
2018-Mar-31 23:28N 33°44' W 118°10'0 0.0
2018-Mar-31 22:58N 33°44' W 118°10'0 0.0
2018-Mar-31 22:28N 33°44' W 118°10'0 0.0
2018-Mar-31 21:58N 33°44' W 118°10'0 0.0
2018-Mar-31 21:28N 33°44' W 118°10'0 0.0
2018-Mar-31 20:58N 33°44' W 118°10'0 0.0
2018-Mar-31 20:28N 33°44' W 118°10'0 0.1
2018-Mar-31 19:58N 33°44' W 118°10'0 0.2
2018-Mar-31 19:28N 33°44' W 118°10'0 0.3
2018-Mar-31 18:55N 33°44' W 118°10'0 0.3
2018-Mar-31 18:30N 33°44' W 118°10'0 0.1
2018-Mar-31 17:49N 33°44' W 118°10'0 0.2
2018-Mar-31 17:28N 33°44' W 118°10'0 0.0
2018-Mar-31 16:58N 33°44' W 118°10'0 0.0
2018-Mar-31 16:28N 33°44' W 118°10'0 0.0
2018-Mar-31 15:58N 33°44' W 118°10'0 0.1
2018-Mar-31 15:28N 33°44' W 118°10'0 0.2
2018-Mar-31 14:58N 33°44' W 118°10'0 0.1
2018-Mar-31 14:28N 33°44' W 118°10'0 0.1
2018-Mar-31 13:58N 33°44' W 118°10'0 0.0
2018-Mar-31 13:25N 33°44' W 118°10'0 0.0
2018-Mar-31 12:58N 33°44' W 118°10'0 0.0
2018-Mar-31 12:25N 33°44' W 118°10'0 0.0
2018-Mar-31 11:58N 33°44' W 118°10'0 0.0
2018-Mar-31 11:28N 33°44' W 118°10'0 0.0
2018-Mar-31 10:58N 33°44' W 118°10'0 0.0
2018-Mar-31 10:28N 33°44' W 118°10'0 0.0
2018-Mar-31 09:58N 33°44' W 118°10'0 0.0
2018-Mar-31 09:28N 33°44' W 118°10'0 0.0
2018-Mar-31 08:58N 33°44' W 118°10'0 0.0
2018-Mar-31 08:28N 33°44' W 118°10'0 0.0
2018-Mar-31 08:01N 33°44' W 118°10'0 0.0
2018-Mar-31 07:28N 33°44' W 118°10'0 0.0
2018-Mar-31 06:58N 33°44' W 118°10'0 0.0
2018-Mar-31 06:25N 33°44' W 118°10'0 0.0
2018-Mar-31 06:01N 33°44' W 118°10'0 0.0
2018-Mar-31 05:31N 33°44' W 118°10'0 0.1
2018-Mar-31 04:58N 33°44' W 118°10'0 0.0
2018-Mar-31 04:28N 33°44' W 118°10'0 0.0
2018-Mar-31 03:58N 33°44' W 118°10'0 0.0
2018-Mar-31 03:28N 33°44' W 118°10'0 0.0
2018-Mar-31 03:00N 33°44' W 118°10'0 0.0
2018-Mar-31 02:28N 33°44' W 118°10'0 0.1
2018-Mar-31 02:00N 33°44' W 118°10'0 0.0
2018-Mar-31 01:28N 33°44' W 118°10'0 0.1
2018-Mar-31 00:55N 33°44' W 118°10'0 0.0
2018-Mar-31 00:28N 33°44' W 118°10'0 0.0
2018-Mar-30 23:58N 33°44' W 118°10'0 0.0
2018-Mar-30 23:28N 33°44' W 118°10'0 0.0
2018-Mar-30 22:58N 33°44' W 118°10'0 0.0
2018-Mar-30 22:28N 33°44' W 118°10'0 0.0
2018-Mar-30 21:58N 33°44' W 118°10'0 0.0
2018-Mar-30 21:31N 33°44' W 118°10'0 0.0
2018-Mar-30 20:58N 33°44' W 118°10'0 0.0
2018-Mar-30 20:31N 33°44' W 118°10'0 0.0
2018-Mar-30 19:58N 33°44' W 118°10'0 0.1
2018-Mar-30 19:28N 33°44' W 118°10'0 0.2
2018-Mar-30 18:58N 33°44' W 118°10'0 0.3
2018-Mar-30 18:31N 33°44' W 118°10'0 0.3
2018-Mar-30 18:01N 33°44' W 118°10'0 0.1
2018-Mar-30 17:31N 33°44' W 118°10'0 0.0
2018-Mar-30 16:55N 33°44' W 118°10'0 0.1
2018-Mar-30 16:30N 33°44' W 118°10'0 0.1
2018-Mar-30 15:57N 33°44' W 118°10'0 0.1
2018-Mar-30 15:30N 33°44' W 118°10'0 0.1
2018-Mar-30 14:58N 33°44' W 118°10'0 0.1
2018-Mar-30 14:28N 33°44' W 118°10'0 0.1
2018-Mar-30 14:01N 33°44' W 118°10'0 0.1
2018-Mar-30 13:31N 33°44' W 118°10'0 0.1
2018-Mar-30 13:01N 33°44' W 118°10'0 0.0
2018-Mar-30 12:31N 33°44' W 118°10'0 0.1
2018-Mar-30 11:57N 33°44' W 118°10'0 0.0
2018-Mar-30 11:28N 33°44' W 118°10'0 0.0
2018-Mar-30 11:01N 33°44' W 118°10'0 0.1
2018-Mar-30 10:30N 33°44' W 118°10'0 0.0
2018-Mar-30 10:00N 33°44' W 118°10'0 0.0
2018-Mar-30 09:30N 33°44' W 118°10'0 0.0
2018-Mar-30 09:01N 33°44' W 118°10'0 0.0
2018-Mar-30 08:30N 33°44' W 118°10'0 0.1
2018-Mar-30 08:00N 33°44' W 118°10'0 0.2
2018-Mar-30 07:30N 33°44' W 118°10'0 0.1
2018-Mar-30 07:00N 33°44' W 118°10'0 0.0
2018-Mar-30 06:30N 33°44' W 118°10'0 0.0
2018-Mar-30 06:00N 33°44' W 118°10'0 0.1
2018-Mar-30 05:30N 33°44' W 118°10'0 0.1
2018-Mar-30 05:00N 33°44' W 118°10'0 0.2
2018-Mar-30 04:31N 33°44' W 118°10'0 0.1
2018-Mar-30 04:00N 33°44' W 118°10'0 0.0
2018-Mar-30 03:30N 33°44' W 118°10'0 0.0
2018-Mar-30 03:00N 33°44' W 118°10'0 0.0
2018-Mar-30 02:30N 33°44' W 118°10'0 0.0
2018-Mar-30 02:01N 33°44' W 118°10'0 0.0
2018-Mar-30 01:31N 33°44' W 118°10'0 0.0
2018-Mar-30 00:57N 33°44' W 118°10'0 0.0
2018-Mar-30 00:30N 33°44' W 118°10'0 0.0
2018-Mar-30 00:01N 33°44' W 118°10'0 0.0
2018-Mar-29 23:30N 33°44' W 118°10'0 0.0
2018-Mar-29 23:00N 33°44' W 118°10'0 0.0
2018-Mar-29 22:30N 33°44' W 118°10'0 0.0
2018-Mar-29 22:00N 33°44' W 118°10'0 0.0
2018-Mar-29 21:30N 33°44' W 118°10'0 0.0
2018-Mar-29 21:00N 33°44' W 118°10'0 0.1
2018-Mar-29 20:30N 33°44' W 118°10'0 0.3
2018-Mar-29 20:01N 33°44' W 118°10'0 0.2
2018-Mar-29 19:30N 33°44' W 118°10'0 0.2
2018-Mar-29 19:00N 33°44' W 118°10'0 0.0
2018-Mar-29 18:30N 33°44' W 118°10'0 0.0
2018-Mar-29 18:00N 33°44' W 118°10'0 0.1
2018-Mar-29 17:30N 33°44' W 118°10'0 0.1
2018-Mar-29 17:01N 33°44' W 118°10'0 0.1
2018-Mar-29 16:24N 33°44' W 118°10'0 0.2
2018-Mar-29 16:00N 33°44' W 118°10'0 0.1
2018-Mar-29 15:30N 33°44' W 118°10'0 0.0
2018-Mar-29 15:00N 33°44' W 118°10'0 0.0
2018-Mar-29 14:30N 33°44' W 118°10'0 0.0
2018-Mar-29 14:00N 33°44' W 118°10'0 0.1
2018-Mar-29 13:30N 33°44' W 118°10'0 0.1
2018-Mar-29 13:00N 33°44' W 118°10'0 0.1
2018-Mar-29 12:30N 33°44' W 118°10'0 0.0
2018-Mar-29 12:00N 33°44' W 118°10'0 0.0
2018-Mar-29 11:30N 33°44' W 118°10'0 0.0
2018-Mar-29 11:00N 33°44' W 118°10'0 0.0
2018-Mar-29 10:30N 33°44' W 118°10'0 0.0
2018-Mar-29 09:54N 33°44' W 118°10'0 0.1
2018-Mar-29 09:30N 33°44' W 118°10'0 0.1
2018-Mar-29 09:00N 33°44' W 118°10'0 0.0
2018-Mar-29 08:27N 33°44' W 118°10'0 0.0
2018-Mar-29 08:00N 33°44' W 118°10'0 0.1
2018-Mar-29 07:30N 33°44' W 118°10'0 0.0
2018-Mar-29 07:00N 33°44' W 118°10'0 0.0
2018-Mar-29 06:30N 33°44' W 118°10'0 0.0
2018-Mar-29 06:00N 33°44' W 118°10'0 0.0
2018-Mar-29 05:30N 33°44' W 118°10'0 0.0
2018-Mar-29 05:00N 33°44' W 118°10'0 0.0
2018-Mar-29 04:30N 33°44' W 118°10'0 0.0
2018-Mar-29 04:00N 33°44' W 118°10'0 0.0
2018-Mar-29 03:30N 33°44' W 118°10'0 0.0
2018-Mar-29 03:00N 33°44' W 118°10'0 0.0
2018-Mar-29 02:30N 33°44' W 118°10'0 0.0
2018-Mar-29 02:00N 33°44' W 118°10'0 0.0
2018-Mar-29 01:30N 33°44' W 118°10'0 0.0
2018-Mar-29 01:00N 33°44' W 118°10'0 0.1
2018-Mar-29 00:30N 33°44' W 118°10'0 0.0
2018-Mar-29 00:00N 33°44' W 118°10'0 0.0
2018-Mar-28 23:30N 33°44' W 118°10'0 0.0
2018-Mar-28 23:00N 33°44' W 118°10'0 0.1
2018-Mar-28 22:30N 33°44' W 118°10'0 0.1
2018-Mar-28 22:00N 33°44' W 118°10'0 0.0
2018-Mar-28 21:30N 33°44' W 118°10'0 0.0
2018-Mar-28 21:00N 33°44' W 118°10'0 0.0
2018-Mar-28 20:30N 33°44' W 118°10'0 0.3
2018-Mar-28 20:00N 33°44' W 118°10'0 0.2
2018-Mar-28 19:30N 33°44' W 118°10'0 0.1
2018-Mar-28 19:00N 33°44' W 118°10'0 0.9
2018-Mar-28 18:30N 33°44' W 118°11'2 4.9
2018-Mar-28 18:00N 33°45' W 118°13'0 0.9
2018-Mar-28 17:30N 33°45' W 118°13'0 0.0
2018-Mar-28 16:53N 33°45' W 118°13'0 0.0
2018-Mar-28 16:29N 33°45' W 118°13'0 0.0
2018-Mar-28 15:59N 33°45' W 118°13'0 0.0
2018-Mar-28 15:29N 33°45' W 118°13'0 0.0
2018-Mar-28 14:59N 33°45' W 118°13'0 0.0
2018-Mar-28 14:29N 33°45' W 118°13'0 0.0
2018-Mar-28 13:59N 33°45' W 118°13'0 0.0
2018-Mar-28 02:14N 33°45' W 118°13'0 0.0
2018-Mar-28 01:53N 33°45' W 118°13'0 0.0
2018-Mar-28 01:23N 33°45' W 118°13'0 0.0
2018-Mar-28 00:53N 33°45' W 118°13'0 0.0
2018-Mar-28 00:26N 33°45' W 118°13'0 0.0
2018-Mar-27 23:56N 33°45' W 118°13'0 0.0
2018-Mar-27 23:29N 33°45' W 118°13'0 0.0
2018-Mar-27 22:59N 33°45' W 118°13'0 0.0
2018-Mar-27 22:29N 33°45' W 118°13'0 0.0
2018-Mar-27 21:59N 33°45' W 118°13'0 0.0
2018-Mar-27 21:29N 33°45' W 118°13'0 0.0
2018-Mar-27 20:59N 33°45' W 118°13'0 0.0
2018-Mar-27 20:29N 33°45' W 118°13'0 0.0
2018-Mar-27 19:59N 33°45' W 118°13'0 0.0
2018-Mar-27 19:29N 33°45' W 118°13'0 0.0
2018-Mar-27 18:59N 33°45' W 118°13'0 0.0
2018-Mar-27 18:29N 33°45' W 118°13'0 0.0
2018-Mar-27 17:59N 33°45' W 118°13'0 0.0
2018-Mar-27 17:29N 33°45' W 118°13'0 0.0
2018-Mar-27 16:59N 33°45' W 118°13'0 0.0
2018-Mar-27 16:29N 33°45' W 118°13'0 0.0
2018-Mar-27 15:59N 33°45' W 118°13'0 0.0
2018-Mar-27 15:26N 33°45' W 118°13'0 0.0
2018-Mar-27 14:56N 33°45' W 118°13'0 0.0
2018-Mar-27 14:11N 33°45' W 118°13'0 0.0
2018-Mar-27 14:00N 33°45' W 118°13'0 0.1
2018-Mar-27 13:30N 33°45' W 118°13'1 2.1
2018-Mar-27 13:00N 33°44' W 118°13'3 5.1
2018-Mar-27 12:30N 33°42' W 118°11'3 5.1
2018-Mar-27 12:00N 33°40' W 118°09'2 2.4
2018-Mar-27 11:10N 33°41' W 118°06'0 0.1
2018-Mar-27 10:40N 33°41' W 118°06'0 0.0
2018-Mar-27 10:28N 33°41' W 118°06'0 0.1
2018-Mar-27 09:21N 33°41' W 118°06'0 0.0
2018-Mar-27 04:54N 33°41' W 118°06'0 0.0
2018-Mar-27 04:03N 33°41' W 118°06'0 0.2
2018-Mar-27 03:57N 33°41' W 118°06'0 0.0
2018-Mar-27 03:28N 33°41' W 118°06'0 0.0
2018-Mar-27 02:57N 33°41' W 118°06'0 0.0
2018-Mar-27 02:28N 33°41' W 118°06'0 0.0
2018-Mar-27 02:00N 33°41' W 118°06'0 0.0
2018-Mar-27 01:30N 33°41' W 118°06'0 0.1
2018-Mar-27 01:00N 33°41' W 118°06'0 0.0
2018-Mar-27 00:30N 33°41' W 118°06'0 0.0
2018-Mar-26 23:57N 33°41' W 118°06'0 0.0
2018-Mar-26 23:30N 33°41' W 118°06'0 0.0
2018-Mar-26 23:00N 33°41' W 118°06'0 0.0
2018-Mar-26 22:27N 33°41' W 118°06'0 0.0
2018-Mar-26 22:00N 33°41' W 118°06'0 0.0
2018-Mar-26 21:24N 33°41' W 118°06'0 0.0
2018-Mar-26 21:00N 33°41' W 118°06'0 0.0
2018-Mar-26 20:27N 33°41' W 118°06'0 0.0
2018-Mar-26 19:57N 33°41' W 118°06'0 0.0
2018-Mar-26 19:30N 33°41' W 118°06'0 0.0
2018-Mar-26 19:00N 33°41' W 118°06'0 0.0
2018-Mar-26 18:30N 33°41' W 118°06'0 0.0
2018-Mar-26 17:57N 33°41' W 118°06'0 0.0
2018-Mar-26 17:30N 33°41' W 118°06'0 0.0
2018-Mar-26 17:00N 33°41' W 118°06'0 0.0
2018-Mar-26 16:30N 33°41' W 118°06'0 0.0
2018-Mar-26 16:00N 33°41' W 118°06'0 0.0
2018-Mar-26 15:30N 33°41' W 118°06'0 0.0
2018-Mar-26 15:00N 33°41' W 118°06'0 0.1
2018-Mar-26 14:30N 33°41' W 118°06'0 0.0
2018-Mar-26 14:00N 33°41' W 118°06'0 0.0
2018-Mar-26 09:45N 33°41' W 118°06'0 0.0
2018-Mar-26 02:15N 33°41' W 118°06'0 0.0
2018-Mar-26 02:00N 33°41' W 118°06'0 0.0
2018-Mar-26 01:30N 33°41' W 118°06'0 0.0
2018-Mar-26 01:00N 33°41' W 118°06'0 0.0
2018-Mar-26 00:30N 33°41' W 118°06'0 0.0
2018-Mar-26 00:00N 33°41' W 118°06'0 0.0
2018-Mar-25 23:30N 33°41' W 118°06'0 0.0
2018-Mar-25 23:00N 33°41' W 118°06'0 0.0
2018-Mar-25 22:27N 33°41' W 118°06'0 0.0
2018-Mar-25 22:00N 33°41' W 118°06'0 0.0
2018-Mar-25 21:27N 33°41' W 118°06'0 0.0
2018-Mar-25 21:00N 33°41' W 118°06'0 0.0
2018-Mar-25 20:30N 33°41' W 118°06'0 0.0
2018-Mar-25 20:00N 33°41' W 118°06'0 0.0
2018-Mar-25 19:30N 33°41' W 118°06'0 0.0
2018-Mar-25 18:57N 33°41' W 118°06'0 0.0
2018-Mar-25 18:30N 33°41' W 118°06'0 0.1
2018-Mar-25 18:00N 33°41' W 118°06'0 0.0
2018-Mar-25 17:30N 33°41' W 118°06'0 0.0
2018-Mar-25 17:00N 33°41' W 118°06'0 0.0
2018-Mar-25 16:30N 33°41' W 118°06'0 0.0
2018-Mar-25 16:00N 33°41' W 118°06'0 0.0
2018-Mar-25 15:30N 33°41' W 118°06'0 0.0
2018-Mar-25 15:00N 33°41' W 118°06'0 0.0
2018-Mar-25 14:27N 33°41' W 118°06'0 0.0
2018-Mar-25 14:00N 33°41' W 118°06'0 0.0
2018-Mar-25 11:39N 33°41' W 118°06'0 0.0
2018-Mar-25 02:15N 33°41' W 118°06'0 0.0
2018-Mar-25 02:00N 33°41' W 118°06'0 0.0
2018-Mar-25 01:30N 33°41' W 118°06'0 0.0
2018-Mar-25 01:00N 33°41' W 118°06'0 0.4
2018-Mar-25 00:30N 33°41' W 118°07'0 0.4
2018-Mar-25 00:00N 33°41' W 118°07'2 3.6
2018-Mar-24 23:30N 33°39' W 118°08'3 6.9
2018-Mar-24 23:01N 33°36' W 118°10'4 8.5
2018-Mar-24 22:30N 33°32' W 118°08'5 9.0
2018-Mar-24 22:00N 33°28' W 118°06'15 9.8
2018-Mar-24 20:28N 33°13' W 118°03'511.3
2018-Mar-24 19:59N 33°07' W 118°02'510.9
2018-Mar-24 19:30N 33°02' W 118°02'510.8
2018-Mar-24 19:00N 32°57' W 118°02'510.9
2018-Mar-24 18:30N 32°51' W 118°02'610.8
2018-Mar-24 17:56N 32°45' W 118°02'41 8.7
2018-Mar-24 13:11N 32°12' W 118°32'40 9.2
2018-Mar-24 08:53N 31°34' W 118°22'3 9.2
2018-Mar-24 08:30N 31°30' W 118°21'5 9.3
2018-Mar-24 07:58N 31°26' W 118°19'4 9.5
2018-Mar-24 07:31N 31°21' W 118°18'2 4.0
2018-Mar-24 07:01N 31°19' W 118°18'2 3.3
2018-Mar-24 06:28N 31°21' W 118°19'2 3.3
2018-Mar-24 05:48N 31°23' W 118°20'2 3.6
2018-Mar-24 05:23N 31°24' W 118°21'2 3.5
2018-Mar-24 04:45N 31°27' W 118°21'1 2.1
2018-Mar-24 04:30N 31°27' W 118°21'1 1.5
2018-Mar-24 04:00N 31°28' W 118°21'1 1.3
2018-Mar-24 03:16N 31°29' W 118°20'  

Dump ship's entire track history